sensor_id;sensor_type;location;lat;lon;timestamp;pressure;altitude;pressure_sealevel;temperature
37452;BMP280;23314;51.114;6.900;2024-03-23T00:55:52;100460.09;;;7.95
37452;BMP280;23314;51.114;6.900;2024-03-23T00:58:17;100455.53;;;7.96
37452;BMP280;23314;51.114;6.900;2024-03-23T01:00:43;100460.47;;;7.97
37452;BMP280;23314;51.114;6.900;2024-03-23T01:03:08;100459.31;;;7.95
37452;BMP280;23314;51.114;6.900;2024-03-23T01:05:33;100450.66;;;7.91
37452;BMP280;23314;51.114;6.900;2024-03-23T01:07:59;100444.22;;;7.92
37452;BMP280;23314;51.114;6.900;2024-03-23T01:10:24;100439.28;;;7.90
37452;BMP280;23314;51.114;6.900;2024-03-23T01:12:49;100431.69;;;7.88
37452;BMP280;23314;51.114;6.900;2024-03-23T01:15:15;100429.44;;;7.91
37452;BMP280;23314;51.114;6.900;2024-03-23T01:17:40;100426.41;;;7.88
37452;BMP280;23314;51.114;6.900;2024-03-23T01:20:06;100424.50;;;7.85
37452;BMP280;23314;51.114;6.900;2024-03-23T01:22:31;100418.78;;;7.87
37452;BMP280;23314;51.114;6.900;2024-03-23T01:24:57;100421.47;;;7.83
37452;BMP280;23314;51.114;6.900;2024-03-23T01:27:22;100432.13;;;7.80
37452;BMP280;23314;51.114;6.900;2024-03-23T01:29:48;100436.69;;;7.79
37452;BMP280;23314;51.114;6.900;2024-03-23T01:32:13;100432.16;;;7.72
37452;BMP280;23314;51.114;6.900;2024-03-23T01:34:38;100418.50;;;7.70
37452;BMP280;23314;51.114;6.900;2024-03-23T01:37:04;100421.50;;;7.76
37452;BMP280;23314;51.114;6.900;2024-03-23T01:39:29;100419.25;;;7.75
37452;BMP280;23314;51.114;6.900;2024-03-23T01:41:55;100426.84;;;7.72
37452;BMP280;23314;51.114;6.900;2024-03-23T01:44:20;100429.50;;;7.72
37452;BMP280;23314;51.114;6.900;2024-03-23T01:46:45;100427.22;;;7.75
37452;BMP280;23314;51.114;6.900;2024-03-23T01:49:11;100421.13;;;7.74
37452;BMP280;23314;51.114;6.900;2024-03-23T01:51:37;100432.91;;;7.69
37452;BMP280;23314;51.114;6.900;2024-03-23T01:54:03;100438.97;;;7.70
37452;BMP280;23314;51.114;6.900;2024-03-23T01:56:29;100429.13;;;7.70
37452;BMP280;23314;51.114;6.900;2024-03-23T01:58:55;100428.34;;;7.70
37452;BMP280;23314;51.114;6.900;2024-03-23T02:01:20;100433.34;;;7.68
37452;BMP280;23314;51.114;6.900;2024-03-23T02:03:46;100442.50;;;7.56
37452;BMP280;23314;51.114;6.900;2024-03-23T02:06:11;100469.47;;;7.33
37452;BMP280;23314;51.114;6.900;2024-03-23T02:08:36;100457.00;;;7.19
37452;BMP280;23314;51.114;6.900;2024-03-23T02:11:02;100446.41;;;7.04
37452;BMP280;23314;51.114;6.900;2024-03-23T02:13:27;100441.84;;;6.98
37452;BMP280;23314;51.114;6.900;2024-03-23T02:15:53;100448.72;;;6.91
37452;BMP280;23314;51.114;6.900;2024-03-23T02:18:18;100434.28;;;6.85
37452;BMP280;23314;51.114;6.900;2024-03-23T02:20:43;100443.03;;;6.79
37452;BMP280;23314;51.114;6.900;2024-03-23T02:23:16;100430.53;;;6.75
37452;BMP280;23314;51.114;6.900;2024-03-23T02:25:43;100434.31;;;6.74
37452;BMP280;23314;51.114;6.900;2024-03-23T02:28:09;100433.53;;;6.74
37452;BMP280;23314;51.114;6.900;2024-03-23T02:30:34;100422.19;;;6.70
37452;BMP280;23314;51.114;6.900;2024-03-23T02:32:59;100424.84;;;6.70
37452;BMP280;23314;51.114;6.900;2024-03-23T02:35:25;100413.50;;;6.73
37452;BMP280;23314;51.114;6.900;2024-03-23T02:37:50;100415.75;;;6.78
37452;BMP280;23314;51.114;6.900;2024-03-23T02:40:16;100432.03;;;6.76
37452;BMP280;23314;51.114;6.900;2024-03-23T02:42:42;100436.56;;;6.76
37452;BMP280;23314;51.114;6.900;2024-03-23T02:45:08;100438.47;;;6.75
37452;BMP280;23314;51.114;6.900;2024-03-23T02:47:33;100435.06;;;6.82
37452;BMP280;23314;51.114;6.900;2024-03-23T02:49:58;100432.38;;;6.86
37452;BMP280;23314;51.114;6.900;2024-03-23T02:52:24;100427.88;;;6.93
37452;BMP280;23314;51.114;6.900;2024-03-23T02:54:49;100425.59;;;6.96
37452;BMP280;23314;51.114;6.900;2024-03-23T02:57:14;100432.75;;;6.99
37452;BMP280;23314;51.114;6.900;2024-03-23T02:59:40;100434.28;;;7.03
37452;BMP280;23314;51.114;6.900;2024-03-23T03:02:06;100436.19;;;7.06
37452;BMP280;23314;51.114;6.900;2024-03-23T03:04:31;100424.81;;;7.09
37452;BMP280;23314;51.114;6.900;2024-03-23T03:06:57;100414.19;;;7.09
37452;BMP280;23314;51.114;6.900;2024-03-23T03:09:22;100421.41;;;7.05
37452;BMP280;23314;51.114;6.900;2024-03-23T03:11:48;100425.94;;;7.01
37452;BMP280;23314;51.114;6.900;2024-03-23T03:14:13;100425.56;;;7.03
37452;BMP280;23314;51.114;6.900;2024-03-23T03:16:38;100419.91;;;7.04
37452;BMP280;23314;51.114;6.900;2024-03-23T03:19:03;100399.03;;;7.10
37452;BMP280;23314;51.114;6.900;2024-03-23T03:21:29;100393.34;;;7.15
37452;BMP280;23314;51.114;6.900;2024-03-23T03:23:54;100397.84;;;7.22
37452;BMP280;23314;51.114;6.900;2024-03-23T03:26:22;100405.81;;;7.22
37452;BMP280;23314;51.114;6.900;2024-03-23T03:28:47;100408.06;;;7.27
37452;BMP280;23314;51.114;6.900;2024-03-23T03:31:16;100406.94;;;7.32
37452;BMP280;23314;51.114;6.900;2024-03-23T03:33:42;100394.06;;;7.30
37452;BMP280;23314;51.114;6.900;2024-03-23T03:36:08;100403.53;;;7.31
37452;BMP280;23314;51.114;6.900;2024-03-23T03:38:33;100411.50;;;7.31
37452;BMP280;23314;51.114;6.900;2024-03-23T03:41:02;100412.63;;;7.30
37452;BMP280;23314;51.114;6.900;2024-03-23T03:43:27;100422.09;;;7.31
37452;BMP280;23314;51.114;6.900;2024-03-23T03:45:53;100415.66;;;7.32
37452;BMP280;23314;51.114;6.900;2024-03-23T03:48:19;100416.03;;;7.31
37452;BMP280;23314;51.114;6.900;2024-03-23T03:50:44;100413.00;;;7.32
37452;BMP280;23314;51.114;6.900;2024-03-23T03:53:10;100415.66;;;7.32
37452;BMP280;23314;51.114;6.900;2024-03-23T03:55:36;100419.81;;;7.30
37452;BMP280;23314;51.114;6.900;2024-03-23T03:58:01;100421.34;;;7.31
37452;BMP280;23314;51.114;6.900;2024-03-23T04:00:27;100420.97;;;7.32
37452;BMP280;23314;51.114;6.900;2024-03-23T04:02:52;100413.00;;;7.32
37452;BMP280;23314;51.114;6.900;2024-03-23T04:05:17;100407.69;;;7.32
37452;BMP280;23314;51.114;6.900;2024-03-23T04:07:44;100402.41;;;7.32
37452;BMP280;23314;51.114;6.900;2024-03-23T04:10:09;100406.91;;;7.39
37452;BMP280;23314;51.114;6.900;2024-03-23T04:12:34;100412.97;;;7.43
37452;BMP280;23314;51.114;6.900;2024-03-23T04:15:00;100419.38;;;7.46
37452;BMP280;23314;51.114;6.900;2024-03-23T04:17:26;100412.91;;;7.47
37452;BMP280;23314;51.114;6.900;2024-03-23T04:19:56;100409.13;;;7.48
37452;BMP280;23314;51.114;6.900;2024-03-23T04:22:22;100402.31;;;7.47
37452;BMP280;23314;51.114;6.900;2024-03-23T04:24:49;100406.84;;;7.50
37452;BMP280;23314;51.114;6.900;2024-03-23T04:27:14;100407.97;;;7.52
37452;BMP280;23314;51.114;6.900;2024-03-23T04:29:39;100402.66;;;7.52
37452;BMP280;23314;51.114;6.900;2024-03-23T04:32:05;100411.41;;;7.53
37452;BMP280;23314;51.114;6.900;2024-03-23T04:34:30;100405.31;;;7.52
37452;BMP280;23314;51.114;6.900;2024-03-23T04:36:58;100404.19;;;7.57
37452;BMP280;23314;51.114;6.900;2024-03-23T04:39:23;100405.28;;;7.60
37452;BMP280;23314;51.114;6.900;2024-03-23T04:41:49;100414.75;;;7.61
37452;BMP280;23314;51.114;6.900;2024-03-23T04:44:14;100420.88;;;7.58
37452;BMP280;23314;51.114;6.900;2024-03-23T04:46:39;100418.97;;;7.54
37452;BMP280;23314;51.114;6.900;2024-03-23T04:49:04;100425.03;;;7.51
37452;BMP280;23314;51.114;6.900;2024-03-23T04:51:35;100422.38;;;7.51
37452;BMP280;23314;51.114;6.900;2024-03-23T04:54:01;100420.88;;;7.50
37452;BMP280;23314;51.114;6.900;2024-03-23T04:56:27;100421.63;;;7.51
37452;BMP280;23314;51.114;6.900;2024-03-23T04:58:52;100420.88;;;7.50
37452;BMP280;23314;51.114;6.900;2024-03-23T05:01:18;100412.56;;;7.45
37452;BMP280;23314;51.114;6.900;2024-03-23T05:03:43;100406.53;;;7.44
37452;BMP280;23314;51.114;6.900;2024-03-23T05:06:09;100410.69;;;7.45
37452;BMP280;23314;51.114;6.900;2024-03-23T05:08:34;100412.56;;;7.45
37452;BMP280;23314;51.114;6.900;2024-03-23T05:11:00;100400.44;;;7.44
37452;BMP280;23314;51.114;6.900;2024-03-23T05:13:25;100399.69;;;7.43
37452;BMP280;23314;51.114;6.900;2024-03-23T05:15:54;100417.13;;;7.44
37452;BMP280;23314;51.114;6.900;2024-03-23T05:18:20;100415.97;;;7.42
37452;BMP280;23314;51.114;6.900;2024-03-23T05:20:46;100418.63;;;7.42
37452;BMP280;23314;51.114;6.900;2024-03-23T05:23:11;100424.72;;;7.42
37452;BMP280;23314;51.114;6.900;2024-03-23T05:25:36;100432.28;;;7.44
37452;BMP280;23314;51.114;6.900;2024-03-23T05:28:02;100436.84;;;7.43
37452;BMP280;23314;51.114;6.900;2024-03-23T05:30:27;100428.88;;;7.39
37452;BMP280;23314;51.114;6.900;2024-03-23T05:32:53;100426.22;;;7.39
37452;BMP280;23314;51.114;6.900;2024-03-23T05:35:19;100431.16;;;7.41
37452;BMP280;23314;51.114;6.900;2024-03-23T05:37:44;100425.09;;;7.40
37452;BMP280;23314;51.114;6.900;2024-03-23T05:40:10;100416.75;;;7.42
37452;BMP280;23314;51.114;6.900;2024-03-23T05:42:35;100415.22;;;7.45
37452;BMP280;23314;51.114;6.900;2024-03-23T05:45:01;100422.41;;;7.48
37452;BMP280;23314;51.114;6.900;2024-03-23T05:47:26;100423.16;;;7.52
37452;BMP280;23314;51.114;6.900;2024-03-23T05:49:51;100426.19;;;7.54
37452;BMP280;23314;51.114;6.900;2024-03-23T05:52:17;100420.13;;;7.57
37452;BMP280;23314;51.114;6.900;2024-03-23T05:54:42;100414.00;;;7.60
37452;BMP280;23314;51.114;6.900;2024-03-23T05:57:09;100426.50;;;7.63
37452;BMP280;23314;51.114;6.900;2024-03-23T05:59:34;100429.16;;;7.67
37452;BMP280;23314;51.114;6.900;2024-03-23T06:01:59;100436.00;;;7.68
37452;BMP280;23314;51.114;6.900;2024-03-23T06:04:25;100440.88;;;7.69
37452;BMP280;23314;51.114;6.900;2024-03-23T06:06:51;100435.94;;;7.71
37452;BMP280;23314;51.114;6.900;2024-03-23T06:09:19;100445.44;;;7.72
37452;BMP280;23314;51.114;6.900;2024-03-23T06:11:45;100446.16;;;7.73
37452;BMP280;23314;51.114;6.900;2024-03-23T06:14:10;100441.59;;;7.77
37452;BMP280;23314;51.114;6.900;2024-03-23T06:16:35;100443.50;;;7.80
37452;BMP280;23314;51.114;6.900;2024-03-23T06:19:01;100440.81;;;7.84
37452;BMP280;23314;51.114;6.900;2024-03-23T06:21:29;100435.53;;;7.80
37452;BMP280;23314;51.114;6.900;2024-03-23T06:23:54;100442.00;;;7.76
37452;BMP280;23314;51.114;6.900;2024-03-23T06:26:20;100444.31;;;7.66
37452;BMP280;23314;51.114;6.900;2024-03-23T06:28:46;100453.84;;;7.56
37452;BMP280;23314;51.114;6.900;2024-03-23T06:31:12;100445.50;;;7.47
37452;BMP280;23314;51.114;6.900;2024-03-23T06:33:37;100453.50;;;7.36
37452;BMP280;23314;51.114;6.900;2024-03-23T06:36:07;100448.25;;;7.29
37452;BMP280;23314;51.114;6.900;2024-03-23T06:38:33;100446.34;;;7.22
37452;BMP280;23314;51.114;6.900;2024-03-23T06:41:02;100446.78;;;7.17
37452;BMP280;23314;51.114;6.900;2024-03-23T06:43:27;100452.06;;;7.14
37452;BMP280;23314;51.114;6.900;2024-03-23T06:45:54;100452.84;;;7.14
37452;BMP280;23314;51.114;6.900;2024-03-23T06:48:19;100449.81;;;7.19
37452;BMP280;23314;51.114;6.900;2024-03-23T06:50:45;100455.06;;;7.23
37452;BMP280;23314;51.114;6.900;2024-03-23T06:53:12;100453.94;;;7.31
37452;BMP280;23314;51.114;6.900;2024-03-23T06:55:37;100449.72;;;7.41
37452;BMP280;23314;51.114;6.900;2024-03-23T06:58:02;100455.03;;;7.45
37452;BMP280;23314;51.114;6.900;2024-03-23T07:00:29;100455.38;;;7.54
37452;BMP280;23314;51.114;6.900;2024-03-23T07:02:54;100462.16;;;7.59
37452;BMP280;23314;51.114;6.900;2024-03-23T07:05:20;100468.22;;;7.63
37452;BMP280;23314;51.114;6.900;2024-03-23T07:07:45;100470.13;;;7.66
37452;BMP280;23314;51.114;6.900;2024-03-23T07:10:10;100456.03;;;7.72
37452;BMP280;23314;51.114;6.900;2024-03-23T07:12:36;100460.56;;;7.79
37452;BMP280;23314;51.114;6.900;2024-03-23T07:15:02;100461.66;;;7.89
37452;BMP280;23314;51.114;6.900;2024-03-23T07:17:27;100470.69;;;7.99
37452;BMP280;23314;51.114;6.900;2024-03-23T07:19:53;100458.19;;;8.03
37452;BMP280;23314;51.114;6.900;2024-03-23T07:22:18;100463.81;;;8.12
37452;BMP280;23314;51.114;6.900;2024-03-23T07:24:44;100465.28;;;8.17
37452;BMP280;23314;51.114;6.900;2024-03-23T07:27:09;100469.00;;;8.27
37452;BMP280;23314;51.114;6.900;2024-03-23T07:29:35;100472.81;;;8.29
37452;BMP280;23314;51.114;6.900;2024-03-23T07:32:01;100481.91;;;8.32
37452;BMP280;23314;51.114;6.900;2024-03-23T07:34:27;100477.69;;;8.34
37452;BMP280;23314;51.114;6.900;2024-03-23T07:36:52;100486.41;;;8.39
37452;BMP280;23314;51.114;6.900;2024-03-23T07:39:17;100488.59;;;8.47
37452;BMP280;23314;51.114;6.900;2024-03-23T07:41:46;100488.56;;;8.55
37452;BMP280;23314;51.114;6.900;2024-03-23T07:44:11;100497.25;;;8.62
37452;BMP280;23314;51.114;6.900;2024-03-23T07:46:36;100489.94;;;8.74
37452;BMP280;23314;51.114;6.900;2024-03-23T07:49:04;100492.88;;;8.83
37452;BMP280;23314;51.114;6.900;2024-03-23T07:51:29;100487.47;;;8.94
37452;BMP280;23314;51.114;6.900;2024-03-23T07:53:55;100498.44;;;8.99
37452;BMP280;23314;51.114;6.900;2024-03-23T07:56:20;100502.63;;;9.01
37452;BMP280;23314;51.114;6.900;2024-03-23T07:58:46;100494.22;;;9.02
37452;BMP280;23314;51.114;6.900;2024-03-23T08:01:14;100496.81;;;9.09
37452;BMP280;23314;51.114;6.900;2024-03-23T08:03:42;100501.28;;;9.20
37452;BMP280;23314;51.114;6.900;2024-03-23T08:06:18;100504.28;;;9.25
37452;BMP280;23314;51.114;6.900;2024-03-23T08:08:46;100509.56;;;9.29
37452;BMP280;23314;51.114;6.900;2024-03-23T08:11:12;100501.53;;;9.32
37452;BMP280;23314;51.114;6.900;2024-03-23T08:13:41;100508.31;;;9.37
37452;BMP280;23314;51.114;6.900;2024-03-23T08:16:07;100518.94;;;9.41
37452;BMP280;23314;51.114;6.900;2024-03-23T08:18:35;100524.16;;;9.52
37452;BMP280;23314;51.114;6.900;2024-03-23T08:21:04;100532.00;;;9.62
37452;BMP280;23314;51.114;6.900;2024-03-23T08:23:31;100530.78;;;9.71
37452;BMP280;23314;51.114;6.900;2024-03-23T08:28:29;100539.72;;;10.11
37452;BMP280;23314;51.114;6.900;2024-03-23T08:30:56;100550.59;;;10.24
37452;BMP280;23314;51.114;6.900;2024-03-23T08:33:22;100563.19;;;10.24
37452;BMP280;23314;51.114;6.900;2024-03-23T08:35:57;100561.44;;;10.41
37452;BMP280;23314;51.114;6.900;2024-03-23T08:38:23;100558.38;;;10.66
37452;BMP280;23314;51.114;6.900;2024-03-23T08:40:56;100578.16;;;10.92
37452;BMP280;23314;51.114;6.900;2024-03-23T08:43:22;100580.53;;;10.87
37452;BMP280;23314;51.114;6.900;2024-03-23T08:45:47;100581.50;;;10.97
37452;BMP280;23314;51.114;6.900;2024-03-23T08:48:12;100579.06;;;11.06
37452;BMP280;23314;51.114;6.900;2024-03-23T08:50:38;100564.72;;;11.40
37452;BMP280;23314;51.114;6.900;2024-03-23T08:53:03;100595.81;;;11.50
37452;BMP280;23314;51.114;6.900;2024-03-23T08:55:29;100593.34;;;11.60
37452;BMP280;23314;51.114;6.900;2024-03-23T08:57:55;100598.25;;;11.61
37452;BMP280;23314;51.114;6.900;2024-03-23T09:00:21;100589.50;;;11.61
37452;BMP280;23314;51.114;6.900;2024-03-23T09:02:50;100582.56;;;11.83
37452;BMP280;23314;51.114;6.900;2024-03-23T09:05:15;100612.44;;;11.78
37452;BMP280;23314;51.114;6.900;2024-03-23T09:07:40;100602.16;;;11.97
37452;BMP280;23314;51.114;6.900;2024-03-23T09:10:07;100613.09;;;12.02
37452;BMP280;23314;51.114;6.900;2024-03-23T09:12:32;100605.25;;;11.95
37452;BMP280;23314;51.114;6.900;2024-03-23T09:14:58;100612.69;;;12.04
37452;BMP280;23314;51.114;6.900;2024-03-23T09:17:24;100613.03;;;12.06
37452;BMP280;23314;51.114;6.900;2024-03-23T09:19:49;100614.81;;;11.93
37452;BMP280;23314;51.114;6.900;2024-03-23T09:22:15;100625.06;;;11.78
37452;BMP280;23314;51.114;6.900;2024-03-23T09:24:40;100624.16;;;11.64
37452;BMP280;23314;51.114;6.900;2024-03-23T09:27:05;100614.28;;;11.61
37452;BMP280;23314;51.114;6.900;2024-03-23T09:29:31;100639.25;;;11.54
37452;BMP280;23314;51.114;6.900;2024-03-23T09:31:56;100650.25;;;11.13
37452;BMP280;23314;51.114;6.900;2024-03-23T09:34:21;100636.09;;;10.92
37452;BMP280;23314;51.114;6.900;2024-03-23T09:36:51;100618.81;;;11.00
37452;BMP280;23314;51.114;6.900;2024-03-23T09:39:18;100627.81;;;11.30
37452;BMP280;23314;51.114;6.900;2024-03-23T09:41:44;100618.28;;;11.53
37452;BMP280;23314;51.114;6.900;2024-03-23T09:44:09;100635.19;;;11.46
37452;BMP280;23314;51.114;6.900;2024-03-23T09:46:35;100620.75;;;11.44
37452;BMP280;23314;51.114;6.900;2024-03-23T09:49:02;100625.44;;;11.36
37452;BMP280;23314;51.114;6.900;2024-03-23T09:51:30;100619.66;;;11.41
37452;BMP280;23314;51.114;6.900;2024-03-23T09:53:55;100617.59;;;11.49
37452;BMP280;23314;51.114;6.900;2024-03-23T09:56:21;100608.63;;;11.79
37452;BMP280;23314;51.114;6.900;2024-03-23T09:58:46;100615.28;;;12.07
37452;BMP280;23314;51.114;6.900;2024-03-23T10:01:12;100603.25;;;12.16
37452;BMP280;23314;51.114;6.900;2024-03-23T10:03:46;100630.84;;;11.93
37452;BMP280;23314;51.114;6.900;2024-03-23T10:06:12;100625.78;;;11.98
37452;BMP280;23314;51.114;6.900;2024-03-23T10:08:37;100629.56;;;12.01
37452;BMP280;23314;51.114;6.900;2024-03-23T10:11:14;100631.41;;;11.84
37452;BMP280;23314;51.114;6.900;2024-03-23T10:13:42;100638.31;;;11.65
37452;BMP280;23314;51.114;6.900;2024-03-23T10:16:07;100638.34;;;11.61
37452;BMP280;23314;51.114;6.900;2024-03-23T10:18:37;100648.41;;;11.53
37452;BMP280;23314;51.114;6.900;2024-03-23T10:23:31;100648.28;;;11.61
37452;BMP280;23314;51.114;6.900;2024-03-23T10:26:22;100660.19;;;11.56
37452;BMP280;23314;51.114;6.900;2024-03-23T10:28:57;100649.13;;;11.78
37452;BMP280;23314;51.114;6.900;2024-03-23T10:31:32;100637.31;;;11.95
37452;BMP280;23314;51.114;6.900;2024-03-23T10:33:57;100652.75;;;11.87
37452;BMP280;23314;51.114;6.900;2024-03-23T10:36:24;100646.94;;;11.72
37452;BMP280;23314;51.114;6.900;2024-03-23T10:38:50;100642.50;;;11.42
37452;BMP280;23314;51.114;6.900;2024-03-23T10:41:16;100643.19;;;11.46
37452;BMP280;23314;51.114;6.900;2024-03-23T10:43:43;100651.09;;;11.53
37452;BMP280;23314;51.114;6.900;2024-03-23T10:46:09;100654.16;;;11.52
37452;BMP280;23314;51.114;6.900;2024-03-23T10:48:35;100659.03;;;11.57
37452;BMP280;23314;51.114;6.900;2024-03-23T10:51:00;100667.69;;;11.65
37452;BMP280;23314;51.114;6.900;2024-03-23T10:53:27;100689.50;;;11.39
37452;BMP280;23314;51.114;6.900;2024-03-23T10:55:54;100692.56;;;10.90
37452;BMP280;23314;51.114;6.900;2024-03-23T10:58:24;100698.25;;;10.65
37452;BMP280;23314;51.114;6.900;2024-03-23T11:00:52;100723.75;;;10.66
37452;BMP280;23314;51.114;6.900;2024-03-23T11:03:35;100721.16;;;10.32
37452;BMP280;23314;51.114;6.900;2024-03-23T11:06:03;100725.16;;;10.12
37452;BMP280;23314;51.114;6.900;2024-03-23T11:11:20;100736.78;;;9.50
37452;BMP280;23314;51.114;6.900;2024-03-23T11:13:51;100738.94;;;9.13
37452;BMP280;23314;51.114;6.900;2024-03-23T11:16:25;100722.06;;;8.71
37452;BMP280;23314;51.114;6.900;2024-03-23T11:18:53;100710.44;;;8.39
37452;BMP280;23314;51.114;6.900;2024-03-23T11:21:53;100698.66;;;8.36
37452;BMP280;23314;51.114;6.900;2024-03-23T11:24:20;100696.00;;;8.40
37452;BMP280;23314;51.114;6.900;2024-03-23T11:26:46;100676.63;;;8.36
37452;BMP280;23314;51.114;6.900;2024-03-23T11:29:13;100670.13;;;8.51
37452;BMP280;23314;51.114;6.900;2024-03-23T11:31:45;100661.34;;;8.62
37452;BMP280;23314;51.114;6.900;2024-03-23T11:34:11;100662.34;;;8.86
37452;BMP280;23314;51.114;6.900;2024-03-23T11:36:36;100660.50;;;9.28
37452;BMP280;23314;51.114;6.900;2024-03-23T11:39:18;100664.13;;;9.53
37452;BMP280;23314;51.114;6.900;2024-03-23T11:41:51;100665.16;;;9.62
37452;BMP280;23314;51.114;6.900;2024-03-23T11:44:25;100664.03;;;9.63
37452;BMP280;23314;51.114;6.900;2024-03-23T11:46:50;100652.81;;;9.79
37452;BMP280;23314;51.114;6.900;2024-03-23T11:49:23;100660.63;;;9.94
37452;BMP280;23314;51.114;6.900;2024-03-23T11:51:50;100649.47;;;10.06
37452;BMP280;23314;51.114;6.900;2024-03-23T11:54:20;100651.22;;;10.20
37452;BMP280;23314;51.114;6.900;2024-03-23T11:59:37;100648.13;;;10.53
37452;BMP280;23314;51.114;6.900;2024-03-23T12:02:07;100648.09;;;10.80
37452;BMP280;23314;51.114;6.900;2024-03-23T12:04:33;100641.69;;;11.01
37452;BMP280;23314;51.114;6.900;2024-03-23T12:09:39;100660.34;;;11.49
37452;BMP280;23314;51.114;6.900;2024-03-23T12:12:09;100680.56;;;11.26
37452;BMP280;23314;51.114;6.900;2024-03-23T12:14:34;100679.50;;;10.45
37452;BMP280;23314;51.114;6.900;2024-03-23T12:17:13;100721.84;;;9.63
37452;BMP280;23314;51.114;6.900;2024-03-23T12:19:41;100703.72;;;8.94
37452;BMP280;23314;51.114;6.900;2024-03-23T12:22:08;100690.84;;;8.82
37452;BMP280;23314;51.114;6.900;2024-03-23T12:24:34;100692.00;;;8.85
37452;BMP280;23314;51.114;6.900;2024-03-23T12:27:03;100682.56;;;8.69
37452;BMP280;23314;51.114;6.900;2024-03-23T12:29:33;100711.78;;;8.76
37452;BMP280;23314;51.114;6.900;2024-03-23T12:32:02;100695.81;;;8.83
37452;BMP280;23314;51.114;6.900;2024-03-23T12:34:28;100706.34;;;9.02
37452;BMP280;23314;51.114;6.900;2024-03-23T12:36:55;100694.91;;;9.01
37452;BMP280;23314;51.114;6.900;2024-03-23T12:39:21;100704.81;;;9.04
37452;BMP280;23314;51.114;6.900;2024-03-23T12:41:47;100704.44;;;9.02
37452;BMP280;23314;51.114;6.900;2024-03-23T12:44:12;100704.53;;;8.84
37452;BMP280;23314;51.114;6.900;2024-03-23T12:46:39;100678.38;;;8.68
37452;BMP280;23314;51.114;6.900;2024-03-23T12:49:04;100672.34;;;8.64
37452;BMP280;23314;51.114;6.900;2024-03-23T12:51:30;100664.72;;;8.70
37452;BMP280;23314;51.114;6.900;2024-03-23T12:53:56;100657.28;;;9.06
37452;BMP280;23314;51.114;6.900;2024-03-23T12:56:21;100656.91;;;9.50
37452;BMP280;23314;51.114;6.900;2024-03-23T12:58:47;100646.97;;;9.92
37452;BMP280;23314;51.114;6.900;2024-03-23T13:01:19;100657.34;;;10.17
37452;BMP280;23314;51.114;6.900;2024-03-23T13:03:48;100665.81;;;10.39
37452;BMP280;23314;51.114;6.900;2024-03-23T13:06:14;100653.25;;;10.40
37452;BMP280;23314;51.114;6.900;2024-03-23T13:08:40;100654.50;;;10.59
37452;BMP280;23314;51.114;6.900;2024-03-23T13:11:06;100662.66;;;10.75
37452;BMP280;23314;51.114;6.900;2024-03-23T13:13:34;100653.06;;;11.05
37452;BMP280;23314;51.114;6.900;2024-03-23T13:15:59;100653.16;;;11.22
37452;BMP280;23314;51.114;6.900;2024-03-23T13:18:25;100648.19;;;11.24
37452;BMP280;23314;51.114;6.900;2024-03-23T13:20:50;100647.22;;;11.34
37452;BMP280;23314;51.114;6.900;2024-03-23T13:23:17;100656.19;;;11.44
37452;BMP280;23314;51.114;6.900;2024-03-23T13:25:49;100650.53;;;11.62
37452;BMP280;23314;51.114;6.900;2024-03-23T13:28:15;100653.25;;;11.99
37452;BMP280;23314;51.114;6.900;2024-03-23T13:30:52;100673.34;;;12.07
37452;BMP280;23314;51.114;6.900;2024-03-23T13:33:18;100667.31;;;11.83
37452;BMP280;23314;51.114;6.900;2024-03-23T13:35:54;100670.00;;;11.83
37452;BMP280;23314;51.114;6.900;2024-03-23T13:38:20;100658.00;;;11.71
37452;BMP280;23314;51.114;6.900;2024-03-23T13:40:57;100663.56;;;11.40
37452;BMP280;23314;51.114;6.900;2024-03-23T13:43:24;100649.69;;;11.01
37452;BMP280;23314;51.114;6.900;2024-03-23T13:45:53;100656.53;;;10.79
37452;BMP280;23314;51.114;6.900;2024-03-23T13:48:20;100653.81;;;10.55
37452;BMP280;23314;51.114;6.900;2024-03-23T13:50:46;100643.13;;;10.55
37452;BMP280;23314;51.114;6.900;2024-03-23T13:53:15;100644.25;;;10.57
37452;BMP280;23314;51.114;6.900;2024-03-23T13:55:47;100642.69;;;10.60
37452;BMP280;23314;51.114;6.900;2024-03-23T13:58:14;100643.13;;;10.55
37452;BMP280;23314;51.114;6.900;2024-03-23T14:00:39;100656.53;;;10.51
37452;BMP280;23314;51.114;6.900;2024-03-23T14:03:05;100649.78;;;10.43
37452;BMP280;23314;51.114;6.900;2024-03-23T14:05:31;100649.66;;;10.50
37452;BMP280;23314;51.114;6.900;2024-03-23T14:07:56;100650.56;;;10.95
37452;BMP280;23314;51.114;6.900;2024-03-23T14:10:21;100643.00;;;11.37
37452;BMP280;23314;51.114;6.900;2024-03-23T14:12:47;100646.50;;;11.74
37452;BMP280;23314;51.114;6.900;2024-03-23T14:15:12;100638.13;;;11.92
37452;BMP280;23314;51.114;6.900;2024-03-23T14:17:37;100630.06;;;12.12
37452;BMP280;23314;51.114;6.900;2024-03-23T14:20:04;100620.56;;;12.11
37452;BMP280;23314;51.114;6.900;2024-03-23T14:22:31;100622.06;;;12.12
37452;BMP280;23314;51.114;6.900;2024-03-23T14:24:56;100616.84;;;12.05
37452;BMP280;23314;51.114;6.900;2024-03-23T14:27:21;100618.50;;;11.99
37452;BMP280;23314;51.114;6.900;2024-03-23T14:29:47;100614.22;;;11.85
37452;BMP280;23314;51.114;6.900;2024-03-23T14:32:13;100623.00;;;11.65
37452;BMP280;23314;51.114;6.900;2024-03-23T14:34:38;100616.56;;;11.43
37452;BMP280;23314;51.114;6.900;2024-03-23T14:37:04;100617.66;;;11.25
37452;BMP280;23314;51.114;6.900;2024-03-23T14:39:30;100606.50;;;11.06
37452;BMP280;23314;51.114;6.900;2024-03-23T14:41:56;100639.81;;;10.98
37452;BMP280;23314;51.114;6.900;2024-03-23T14:44:22;100666.22;;;10.69
37452;BMP280;23314;51.114;6.900;2024-03-23T14:46:47;100638.13;;;10.30
37452;BMP280;23314;51.114;6.900;2024-03-23T14:49:16;100621.13;;;10.20
37452;BMP280;23314;51.114;6.900;2024-03-23T14:51:44;100637.25;;;10.09
37452;BMP280;23314;51.114;6.900;2024-03-23T14:54:11;100632.13;;;9.91
37452;BMP280;23314;51.114;6.900;2024-03-23T14:56:36;100633.50;;;9.72
37452;BMP280;23314;51.114;6.900;2024-03-23T14:59:02;100624.06;;;9.63
37452;BMP280;23314;51.114;6.900;2024-03-23T15:01:28;100630.25;;;9.53
37452;BMP280;23314;51.114;6.900;2024-03-23T15:03:53;100626.88;;;9.49
37452;BMP280;23314;51.114;6.900;2024-03-23T15:06:19;100620.47;;;9.39
37452;BMP280;23314;51.114;6.900;2024-03-23T15:08:44;100608.78;;;9.33